sensor_id;sensor_type;location;lat;lon;timestamp;P1;durP1;ratioP1;P2;durP2;ratioP2
12145;SDS011;6136;47.032;15.398;2023-03-12T00:00:45;2.30;;;2.00;;
12145;SDS011;6136;47.032;15.398;2023-03-12T00:03:13;5.47;;;2.17;;
12145;SDS011;6136;47.032;15.398;2023-03-12T00:05:42;6.57;;;1.80;;
12145;SDS011;6136;47.032;15.398;2023-03-12T00:08:11;3.87;;;1.80;;
12145;SDS011;6136;47.032;15.398;2023-03-12T00:10:41;2.80;;;2.23;;
12145;SDS011;6136;47.032;15.398;2023-03-12T00:13:09;2.83;;;2.30;;
12145;SDS011;6136;47.032;15.398;2023-03-12T00:15:37;3.33;;;2.00;;
12145;SDS011;6136;47.032;15.398;2023-03-12T00:18:06;4.00;;;2.37;;
12145;SDS011;6136;47.032;15.398;2023-03-12T00:20:34;4.37;;;2.17;;
12145;SDS011;6136;47.032;15.398;2023-03-12T00:23:02;2.10;;;1.80;;
12145;SDS011;6136;47.032;15.398;2023-03-12T00:25:30;1.93;;;1.83;;
12145;SDS011;6136;47.032;15.398;2023-03-12T00:28:00;2.57;;;2.37;;
12145;SDS011;6136;47.032;15.398;2023-03-12T00:30:28;3.30;;;2.30;;
12145;SDS011;6136;47.032;15.398;2023-03-12T00:32:57;2.20;;;2.00;;
12145;SDS011;6136;47.032;15.398;2023-03-12T00:35:25;4.60;;;2.07;;
12145;SDS011;6136;47.032;15.398;2023-03-12T00:37:53;2.97;;;2.30;;
12145;SDS011;6136;47.032;15.398;2023-03-12T00:40:21;3.30;;;2.47;;
12145;SDS011;6136;47.032;15.398;2023-03-12T00:42:49;2.97;;;2.47;;
12145;SDS011;6136;47.032;15.398;2023-03-12T00:45:19;2.90;;;2.60;;
12145;SDS011;6136;47.032;15.398;2023-03-12T00:47:47;2.60;;;1.90;;
12145;SDS011;6136;47.032;15.398;2023-03-12T00:50:15;3.67;;;2.70;;
12145;SDS011;6136;47.032;15.398;2023-03-12T00:52:44;3.73;;;2.30;;
12145;SDS011;6136;47.032;15.398;2023-03-12T00:55:12;3.17;;;2.60;;
12145;SDS011;6136;47.032;15.398;2023-03-12T00:57:40;3.27;;;2.23;;
12145;SDS011;6136;47.032;15.398;2023-03-12T01:00:09;2.27;;;2.07;;
12145;SDS011;6136;47.032;15.398;2023-03-12T01:02:40;2.77;;;2.33;;
12145;SDS011;6136;47.032;15.398;2023-03-12T01:05:13;2.40;;;2.07;;
12145;SDS011;6136;47.032;15.398;2023-03-12T01:07:42;6.70;;;2.73;;
12145;SDS011;6136;47.032;15.398;2023-03-12T01:10:11;3.37;;;2.50;;
12145;SDS011;6136;47.032;15.398;2023-03-12T01:12:42;3.07;;;2.53;;
12145;SDS011;6136;47.032;15.398;2023-03-12T01:15:11;3.23;;;2.50;;
12145;SDS011;6136;47.032;15.398;2023-03-12T01:17:42;5.63;;;3.27;;
12145;SDS011;6136;47.032;15.398;2023-03-12T01:20:10;3.97;;;2.83;;
12145;SDS011;6136;47.032;15.398;2023-03-12T01:22:39;3.23;;;2.30;;
12145;SDS011;6136;47.032;15.398;2023-03-12T01:25:07;3.97;;;2.73;;
12145;SDS011;6136;47.032;15.398;2023-03-12T01:27:36;2.67;;;2.47;;
12145;SDS011;6136;47.032;15.398;2023-03-12T01:30:05;2.67;;;2.43;;
12145;SDS011;6136;47.032;15.398;2023-03-12T01:32:34;2.73;;;2.50;;
12145;SDS011;6136;47.032;15.398;2023-03-12T01:35:03;2.97;;;2.57;;
12145;SDS011;6136;47.032;15.398;2023-03-12T01:37:32;3.90;;;3.07;;
12145;SDS011;6136;47.032;15.398;2023-03-12T01:40:01;4.60;;;2.97;;
12145;SDS011;6136;47.032;15.398;2023-03-12T01:42:29;6.17;;;2.67;;
12145;SDS011;6136;47.032;15.398;2023-03-12T01:44:58;4.07;;;2.60;;
12145;SDS011;6136;47.032;15.398;2023-03-12T01:47:30;5.30;;;3.13;;
12145;SDS011;6136;47.032;15.398;2023-03-12T01:50:01;3.83;;;2.93;;
12145;SDS011;6136;47.032;15.398;2023-03-12T01:52:32;4.27;;;3.10;;
12145;SDS011;6136;47.032;15.398;2023-03-12T01:55:04;4.60;;;3.30;;
12145;SDS011;6136;47.032;15.398;2023-03-12T01:57:38;4.87;;;3.00;;
12145;SDS011;6136;47.032;15.398;2023-03-12T02:00:11;3.57;;;3.20;;
12145;SDS011;6136;47.032;15.398;2023-03-12T02:02:41;3.70;;;2.83;;
12145;SDS011;6136;47.032;15.398;2023-03-12T02:05:18;4.70;;;3.70;;
12145;SDS011;6136;47.032;15.398;2023-03-12T02:07:53;5.43;;;3.73;;
12145;SDS011;6136;47.032;15.398;2023-03-12T02:10:22;3.83;;;3.33;;
12145;SDS011;6136;47.032;15.398;2023-03-12T02:12:51;5.00;;;3.10;;
12145;SDS011;6136;47.032;15.398;2023-03-12T02:15:20;4.10;;;2.90;;
12145;SDS011;6136;47.032;15.398;2023-03-12T02:17:49;6.60;;;3.30;;
12145;SDS011;6136;47.032;15.398;2023-03-12T02:20:19;6.63;;;3.33;;
12145;SDS011;6136;47.032;15.398;2023-03-12T02:22:54;3.90;;;2.63;;
12145;SDS011;6136;47.032;15.398;2023-03-12T02:25:34;3.03;;;2.67;;
12145;SDS011;6136;47.032;15.398;2023-03-12T02:28:06;5.30;;;2.77;;
12145;SDS011;6136;47.032;15.398;2023-03-12T02:30:35;5.73;;;3.07;;
12145;SDS011;6136;47.032;15.398;2023-03-12T02:33:06;3.80;;;3.23;;
12145;SDS011;6136;47.032;15.398;2023-03-12T02:35:37;4.63;;;3.13;;
12145;SDS011;6136;47.032;15.398;2023-03-12T02:41:04;8.70;;;3.30;;
12145;SDS011;6136;47.032;15.398;2023-03-12T02:43:37;5.17;;;3.40;;
12145;SDS011;6136;47.032;15.398;2023-03-12T02:46:06;5.33;;;3.37;;
12145;SDS011;6136;47.032;15.398;2023-03-12T02:48:35;6.27;;;3.73;;
12145;SDS011;6136;47.032;15.398;2023-03-12T02:51:03;4.13;;;3.30;;
12145;SDS011;6136;47.032;15.398;2023-03-12T02:53:32;5.43;;;3.93;;
12145;SDS011;6136;47.032;15.398;2023-03-12T02:56:00;4.67;;;3.50;;
12145;SDS011;6136;47.032;15.398;2023-03-12T02:58:30;5.03;;;3.70;;
12145;SDS011;6136;47.032;15.398;2023-03-12T03:00:58;7.23;;;4.27;;
12145;SDS011;6136;47.032;15.398;2023-03-12T03:03:26;5.90;;;4.00;;
12145;SDS011;6136;47.032;15.398;2023-03-12T03:05:54;4.20;;;3.67;;
12145;SDS011;6136;47.032;15.398;2023-03-12T03:08:23;4.20;;;3.63;;
12145;SDS011;6136;47.032;15.398;2023-03-12T03:10:51;4.70;;;3.53;;
12145;SDS011;6136;47.032;15.398;2023-03-12T03:13:21;4.87;;;3.37;;
12145;SDS011;6136;47.032;15.398;2023-03-12T03:15:50;5.47;;;3.80;;
12145;SDS011;6136;47.032;15.398;2023-03-12T03:18:18;4.17;;;3.40;;
12145;SDS011;6136;47.032;15.398;2023-03-12T03:20:53;3.23;;;2.93;;
12145;SDS011;6136;47.032;15.398;2023-03-12T03:23:23;4.00;;;3.30;;
12145;SDS011;6136;47.032;15.398;2023-03-12T03:25:51;3.33;;;3.00;;
12145;SDS011;6136;47.032;15.398;2023-03-12T03:28:19;3.20;;;2.90;;
12145;SDS011;6136;47.032;15.398;2023-03-12T03:30:48;3.63;;;3.03;;
12145;SDS011;6136;47.032;15.398;2023-03-12T03:33:20;5.03;;;3.40;;
12145;SDS011;6136;47.032;15.398;2023-03-12T03:35:48;3.67;;;2.83;;
12145;SDS011;6136;47.032;15.398;2023-03-12T03:38:17;4.33;;;3.30;;
12145;SDS011;6136;47.032;15.398;2023-03-12T03:40:45;5.23;;;3.67;;
12145;SDS011;6136;47.032;15.398;2023-03-12T03:43:14;3.17;;;2.87;;
12145;SDS011;6136;47.032;15.398;2023-03-12T03:45:43;3.50;;;3.20;;
12145;SDS011;6136;47.032;15.398;2023-03-12T03:48:12;4.40;;;3.43;;
12145;SDS011;6136;47.032;15.398;2023-03-12T03:50:42;3.17;;;2.87;;
12145;SDS011;6136;47.032;15.398;2023-03-12T03:53:11;4.23;;;3.20;;
12145;SDS011;6136;47.032;15.398;2023-03-12T03:55:39;5.03;;;3.20;;
12145;SDS011;6136;47.032;15.398;2023-03-12T03:58:08;3.87;;;3.33;;
12145;SDS011;6136;47.032;15.398;2023-03-12T04:00:37;3.33;;;3.03;;
12145;SDS011;6136;47.032;15.398;2023-03-12T04:03:05;4.80;;;3.70;;
12145;SDS011;6136;47.032;15.398;2023-03-12T04:05:33;3.20;;;2.90;;
12145;SDS011;6136;47.032;15.398;2023-03-12T04:08:03;3.50;;;3.20;;
12145;SDS011;6136;47.032;15.398;2023-03-12T04:10:32;4.47;;;3.10;;
12145;SDS011;6136;47.032;15.398;2023-03-12T04:13:00;4.60;;;3.17;;
12145;SDS011;6136;47.032;15.398;2023-03-12T04:15:29;3.40;;;3.00;;
12145;SDS011;6136;47.032;15.398;2023-03-12T04:17:57;3.43;;;3.13;;
12145;SDS011;6136;47.032;15.398;2023-03-12T04:20:28;3.37;;;3.07;;
12145;SDS011;6136;47.032;15.398;2023-03-12T04:22:56;5.60;;;3.40;;
12145;SDS011;6136;47.032;15.398;2023-03-12T04:25:29;3.83;;;3.50;;
12145;SDS011;6136;47.032;15.398;2023-03-12T04:27:57;5.83;;;3.40;;
12145;SDS011;6136;47.032;15.398;2023-03-12T04:30:26;4.07;;;3.23;;
12145;SDS011;6136;47.032;15.398;2023-03-12T04:32:55;4.70;;;3.97;;
12145;SDS011;6136;47.032;15.398;2023-03-12T04:35:23;5.67;;;3.70;;
12145;SDS011;6136;47.032;15.398;2023-03-12T04:37:51;5.87;;;3.10;;
12145;SDS011;6136;47.032;15.398;2023-03-12T04:40:20;4.10;;;3.50;;
12145;SDS011;6136;47.032;15.398;2023-03-12T04:42:49;4.77;;;4.03;;
12145;SDS011;6136;47.032;15.398;2023-03-12T04:45:18;5.43;;;3.47;;
12145;SDS011;6136;47.032;15.398;2023-03-12T04:47:46;4.43;;;3.80;;
12145;SDS011;6136;47.032;15.398;2023-03-12T04:50:15;3.90;;;3.30;;
12145;SDS011;6136;47.032;15.398;2023-03-12T04:52:43;3.87;;;3.00;;
12145;SDS011;6136;47.032;15.398;2023-03-12T04:55:11;3.67;;;3.10;;
12145;SDS011;6136;47.032;15.398;2023-03-12T04:57:40;3.93;;;3.53;;
12145;SDS011;6136;47.032;15.398;2023-03-12T05:00:10;4.77;;;3.03;;
12145;SDS011;6136;47.032;15.398;2023-03-12T05:02:41;3.10;;;2.90;;
12145;SDS011;6136;47.032;15.398;2023-03-12T05:05:11;3.37;;;3.07;;
12145;SDS011;6136;47.032;15.398;2023-03-12T05:07:39;4.07;;;3.20;;
12145;SDS011;6136;47.032;15.398;2023-03-12T05:10:07;3.27;;;3.00;;
12145;SDS011;6136;47.032;15.398;2023-03-12T05:12:37;4.20;;;3.20;;
12145;SDS011;6136;47.032;15.398;2023-03-12T05:15:05;4.50;;;3.07;;
12145;SDS011;6136;47.032;15.398;2023-03-12T05:17:36;3.17;;;2.80;;
12145;SDS011;6136;47.032;15.398;2023-03-12T05:20:05;3.93;;;3.00;;
12145;SDS011;6136;47.032;15.398;2023-03-12T05:22:34;3.60;;;3.00;;
12145;SDS011;6136;47.032;15.398;2023-03-12T05:25:02;3.67;;;3.03;;
12145;SDS011;6136;47.032;15.398;2023-03-12T05:27:31;5.83;;;3.17;;
12145;SDS011;6136;47.032;15.398;2023-03-12T05:29:59;4.33;;;3.17;;
12145;SDS011;6136;47.032;15.398;2023-03-12T05:32:28;3.50;;;3.20;;
12145;SDS011;6136;47.032;15.398;2023-03-12T05:34:58;4.40;;;3.00;;
12145;SDS011;6136;47.032;15.398;2023-03-12T05:37:26;3.67;;;3.23;;
12145;SDS011;6136;47.032;15.398;2023-03-12T05:39:54;6.10;;;3.13;;
12145;SDS011;6136;47.032;15.398;2023-03-12T05:42:23;3.20;;;2.87;;
12145;SDS011;6136;47.032;15.398;2023-03-12T05:44:52;3.80;;;2.97;;
12145;SDS011;6136;47.032;15.398;2023-03-12T05:47:21;3.60;;;3.17;;
12145;SDS011;6136;47.032;15.398;2023-03-12T05:49:50;4.80;;;3.73;;
12145;SDS011;6136;47.032;15.398;2023-03-12T05:52:20;4.37;;;3.70;;
12145;SDS011;6136;47.032;15.398;2023-03-12T05:54:50;4.23;;;3.40;;
12145;SDS011;6136;47.032;15.398;2023-03-12T05:57:19;4.67;;;3.67;;
12145;SDS011;6136;47.032;15.398;2023-03-12T05:59:47;9.93;;;3.83;;
12145;SDS011;6136;47.032;15.398;2023-03-12T06:02:15;6.07;;;3.97;;
12145;SDS011;6136;47.032;15.398;2023-03-12T06:04:44;4.33;;;3.57;;
12145;SDS011;6136;47.032;15.398;2023-03-12T06:07:12;5.27;;;3.20;;
12145;SDS011;6136;47.032;15.398;2023-03-12T06:09:41;6.60;;;3.77;;
12145;SDS011;6136;47.032;15.398;2023-03-12T06:12:11;4.80;;;3.40;;
12145;SDS011;6136;47.032;15.398;2023-03-12T06:14:39;4.27;;;3.00;;
12145;SDS011;6136;47.032;15.398;2023-03-12T06:17:08;3.97;;;3.10;;
12145;SDS011;6136;47.032;15.398;2023-03-12T06:19:36;4.60;;;3.47;;
12145;SDS011;6136;47.032;15.398;2023-03-12T06:22:04;5.63;;;3.37;;
12145;SDS011;6136;47.032;15.398;2023-03-12T06:24:32;5.90;;;3.73;;
12145;SDS011;6136;47.032;15.398;2023-03-12T06:27:05;6.73;;;3.63;;
12145;SDS011;6136;47.032;15.398;2023-03-12T06:29:33;6.83;;;3.50;;
12145;SDS011;6136;47.032;15.398;2023-03-12T06:32:01;5.50;;;3.40;;
12145;SDS011;6136;47.032;15.398;2023-03-12T06:34:29;4.93;;;3.37;;
12145;SDS011;6136;47.032;15.398;2023-03-12T06:36:57;3.23;;;2.77;;
12145;SDS011;6136;47.032;15.398;2023-03-12T06:39:26;2.57;;;2.20;;
12145;SDS011;6136;47.032;15.398;2023-03-12T06:41:55;2.37;;;2.17;;
12145;SDS011;6136;47.032;15.398;2023-03-12T06:44:25;5.07;;;2.67;;
12145;SDS011;6136;47.032;15.398;2023-03-12T06:46:53;3.90;;;2.60;;
12145;SDS011;6136;47.032;15.398;2023-03-12T06:49:21;3.00;;;2.43;;
12145;SDS011;6136;47.032;15.398;2023-03-12T06:51:49;4.10;;;2.40;;
12145;SDS011;6136;47.032;15.398;2023-03-12T06:54:17;3.83;;;2.80;;
12145;SDS011;6136;47.032;15.398;2023-03-12T06:56:45;2.17;;;1.97;;
12145;SDS011;6136;47.032;15.398;2023-03-12T06:59:13;3.43;;;2.60;;
12145;SDS011;6136;47.032;15.398;2023-03-12T07:01:45;3.10;;;2.30;;
12145;SDS011;6136;47.032;15.398;2023-03-12T07:04:13;2.23;;;2.00;;
12145;SDS011;6136;47.032;15.398;2023-03-12T07:06:41;3.63;;;2.07;;
12145;SDS011;6136;47.032;15.398;2023-03-12T07:09:09;2.63;;;2.00;;
12145;SDS011;6136;47.032;15.398;2023-03-12T07:11:37;3.07;;;2.27;;
12145;SDS011;6136;47.032;15.398;2023-03-12T07:14:05;4.50;;;1.87;;
12145;SDS011;6136;47.032;15.398;2023-03-12T07:16:33;1.87;;;1.77;;
12145;SDS011;6136;47.032;15.398;2023-03-12T07:19:03;2.90;;;2.30;;
12145;SDS011;6136;47.032;15.398;2023-03-12T07:21:31;2.97;;;2.10;;
12145;SDS011;6136;47.032;15.398;2023-03-12T07:23:59;3.03;;;2.10;;
12145;SDS011;6136;47.032;15.398;2023-03-12T07:26:32;2.10;;;1.90;;
12145;SDS011;6136;47.032;15.398;2023-03-12T07:29:01;3.53;;;2.60;;
12145;SDS011;6136;47.032;15.398;2023-03-12T07:31:30;3.30;;;2.50;;
12145;SDS011;6136;47.032;15.398;2023-03-12T07:33:58;2.30;;;2.17;;
12145;SDS011;6136;47.032;15.398;2023-03-12T07:36:30;2.03;;;1.83;;
12145;SDS011;6136;47.032;15.398;2023-03-12T07:38:59;3.23;;;2.30;;
12145;SDS011;6136;47.032;15.398;2023-03-12T07:41:27;4.87;;;2.00;;
12145;SDS011;6136;47.032;15.398;2023-03-12T07:43:55;2.43;;;1.90;;
12145;SDS011;6136;47.032;15.398;2023-03-12T07:46:23;2.65;;;2.28;;
12145;SDS011;6136;47.032;15.398;2023-03-12T07:48:51;3.33;;;2.55;;
12145;SDS011;6136;47.032;15.398;2023-03-12T07:51:19;5.88;;;2.20;;
12145;SDS011;6136;47.032;15.398;2023-03-12T07:53:49;2.92;;;2.10;;
12145;SDS011;6136;47.032;15.398;2023-03-12T07:56:17;3.38;;;2.15;;
12145;SDS011;6136;47.032;15.398;2023-03-12T07:58:45;2.92;;;1.95;;
12145;SDS011;6136;47.032;15.398;2023-03-12T08:01:14;2.25;;;2.05;;
12145;SDS011;6136;47.032;15.398;2023-03-12T08:03:42;3.67;;;2.38;;
12145;SDS011;6136;47.032;15.398;2023-03-12T08:06:11;2.42;;;2.22;;
12145;SDS011;6136;47.032;15.398;2023-03-12T08:08:39;2.28;;;2.08;;
12145;SDS011;6136;47.032;15.398;2023-03-12T08:11:09;3.38;;;2.22;;
12145;SDS011;6136;47.032;15.398;2023-03-12T08:13:37;2.85;;;2.45;;
12145;SDS011;6136;47.032;15.398;2023-03-12T08:16:05;2.40;;;2.20;;
12145;SDS011;6136;47.032;15.398;2023-03-12T08:18:35;2.30;;;2.10;;
12145;SDS011;6136;47.032;15.398;2023-03-12T08:21:03;3.90;;;2.50;;
12145;SDS011;6136;47.032;15.398;2023-03-12T08:23:31;2.20;;;2.00;;
12145;SDS011;6136;47.032;15.398;2023-03-12T08:26:01;3.08;;;2.63;;
12145;SDS011;6136;47.032;15.398;2023-03-12T08:28:36;2.55;;;2.35;;
12145;SDS011;6136;47.032;15.398;2023-03-12T08:31:05;3.03;;;2.20;;
12145;SDS011;6136;47.032;15.398;2023-03-12T08:33:35;3.20;;;2.50;;
12145;SDS011;6136;47.032;15.398;2023-03-12T08:36:06;3.00;;;2.03;;
12145;SDS011;6136;47.032;15.398;2023-03-12T08:38:35;3.33;;;2.75;;
12145;SDS011;6136;47.032;15.398;2023-03-12T08:41:03;4.68;;;2.65;;
12145;SDS011;6136;47.032;15.398;2023-03-12T08:43:32;2.65;;;2.45;;
12145;SDS011;6136;47.032;15.398;2023-03-12T08:46:02;4.68;;;2.75;;
12145;SDS011;6136;47.032;15.398;2023-03-12T08:48:30;3.13;;;2.53;;
12145;SDS011;6136;47.032;15.398;2023-03-12T08:51:00;2.78;;;2.25;;
12145;SDS011;6136;47.032;15.398;2023-03-12T08:53:30;2.90;;;2.60;;
12145;SDS011;6136;47.032;15.398;2023-03-12T08:55:59;2.88;;;2.20;;
12145;SDS011;6136;47.032;15.398;2023-03-12T08:58:28;2.47;;;2.28;;
12145;SDS011;6136;47.032;15.398;2023-03-12T09:00:56;2.67;;;2.08;;
12145;SDS011;6136;47.032;15.398;2023-03-12T09:03:26;2.33;;;2.13;;
12145;SDS011;6136;47.032;15.398;2023-03-12T09:06:01;3.83;;;2.47;;
12145;SDS011;6136;47.032;15.398;2023-03-12T09:08:30;3.67;;;2.38;;
12145;SDS011;6136;47.032;15.398;2023-03-12T09:10:59;2.97;;;2.50;;
12145;SDS011;6136;47.032;15.398;2023-03-12T09:13:28;3.08;;;2.30;;
12145;SDS011;6136;47.032;15.398;2023-03-12T09:16:16;3.10;;;2.70;;
12145;SDS011;6136;47.032;15.398;2023-03-12T09:18:46;3.78;;;2.70;;
12145;SDS011;6136;47.032;15.398;2023-03-12T09:21:14;2.58;;;2.35;;
12145;SDS011;6136;47.032;15.398;2023-03-12T09:23:42;2.58;;;2.38;;
12145;SDS011;6136;47.032;15.398;2023-03-12T09:26:11;5.22;;;2.50;;
12145;SDS011;6136;47.032;15.398;2023-03-12T09:28:40;3.17;;;2.65;;
12145;SDS011;6136;47.032;15.398;2023-03-12T09:31:10;3.38;;;2.60;;
12145;SDS011;6136;47.032;15.398;2023-03-12T09:33:39;2.70;;;2.38;;
12145;SDS011;6136;47.032;15.398;2023-03-12T09:36:09;2.60;;;2.40;;
12145;SDS011;6136;47.032;15.398;2023-03-12T09:38:37;3.38;;;2.42;;
12145;SDS011;6136;47.032;15.398;2023-03-12T09:41:11;2.83;;;2.53;;
12145;SDS011;6136;47.032;15.398;2023-03-12T09:43:44;2.53;;;2.33;;
12145;SDS011;6136;47.032;15.398;2023-03-12T09:46:19;3.75;;;2.13;;
12145;SDS011;6136;47.032;15.398;2023-03-12T09:48:52;3.55;;;3.25;;
12145;SDS011;6136;47.032;15.398;2023-03-12T09:51:27;2.42;;;2.22;;
12145;SDS011;6136;47.032;15.398;2023-03-12T09:54:01;2.67;;;2.40;;
12145;SDS011;6136;47.032;15.398;2023-03-12T09:56:30;3.28;;;2.35;;
12145;SDS011;6136;47.032;15.398;2023-03-12T09:59:00;3.40;;;2.47;;
12145;SDS011;6136;47.032;15.398;2023-03-12T10:01:31;3.15;;;2.50;;
12145;SDS011;6136;47.032;15.398;2023-03-12T10:07:25;2.42;;;2.10;;
12145;SDS011;6136;47.032;15.398;2023-03-12T10:10:05;2.93;;;2.60;;
12145;SDS011;6136;47.032;15.398;2023-03-12T10:12:53;4.37;;;2.63;;
12145;SDS011;6136;47.032;15.398;2023-03-12T10:15:35;2.53;;;2.13;;
12145;SDS011;6136;47.032;15.398;2023-03-12T10:18:13;3.30;;;2.65;;
12145;SDS011;6136;47.032;15.398;2023-03-12T10:20:55;3.67;;;2.53;;
12145;SDS011;6136;47.032;15.398;2023-03-12T10:23:36;3.42;;;2.58;;
12145;SDS011;6136;47.032;15.398;2023-03-12T10:26:13;3.42;;;2.58;;
12145;SDS011;6136;47.032;15.398;2023-03-12T10:28:47;2.53;;;2.33;;
12145;SDS011;6136;47.032;15.398;2023-03-12T10:31:18;4.45;;;2.50;;
12145;SDS011;6136;47.032;15.398;2023-03-12T10:33:53;2.78;;;2.55;;
12145;SDS011;6136;47.032;15.398;2023-03-12T10:36:24;2.65;;;2.45;;
12145;SDS011;6136;47.032;15.398;2023-03-12T10:39:00;2.60;;;2.40;;
12145;SDS011;6136;47.032;15.398;2023-03-12T10:41:31;4.97;;;2.60;;
12145;SDS011;6136;47.032;15.398;2023-03-12T10:44:02;3.33;;;2.58;;
12145;SDS011;6136;47.032;15.398;2023-03-12T10:46:39;2.55;;;2.35;;
12145;SDS011;6136;47.032;15.398;2023-03-12T10:49:26;3.05;;;2.80;;
12145;SDS011;6136;47.032;15.398;2023-03-12T10:51:57;2.90;;;2.60;;
12145;SDS011;6136;47.032;15.398;2023-03-12T10:54:30;3.22;;;2.45;;
12145;SDS011;6136;47.032;15.398;2023-03-12T10:57:00;3.45;;;2.95;;
12145;SDS011;6136;47.032;15.398;2023-03-12T10:59:29;3.83;;;3.10;;
12145;SDS011;6136;47.032;15.398;2023-03-12T11:02:00;3.58;;;2.33;;
12145;SDS011;6136;47.032;15.398;2023-03-12T11:04:28;2.88;;;2.67;;
12145;SDS011;6136;47.032;15.398;2023-03-12T11:07:06;2.63;;;2.42;;
12145;SDS011;6136;47.032;15.398;2023-03-12T11:09:52;4.72;;;2.88;;
12145;SDS011;6136;47.032;15.398;2023-03-12T11:12:39;2.53;;;2.33;;
12145;SDS011;6136;47.032;15.398;2023-03-12T11:15:39;2.50;;;2.30;;
12145;SDS011;6136;47.032;15.398;2023-03-12T11:18:22;4.93;;;2.85;;
12145;SDS011;6136;47.032;15.398;2023-03-12T11:20:53;4.65;;;2.47;;
12145;SDS011;6136;47.032;15.398;2023-03-12T11:23:24;2.72;;;2.53;;
12145;SDS011;6136;47.032;15.398;2023-03-12T11:25:58;3.33;;;2.45;;
12145;SDS011;6136;47.032;15.398;2023-03-12T11:28:31;3.10;;;2.60;;
12145;SDS011;6136;47.032;15.398;2023-03-12T11:31:04;2.80;;;2.60;;
12145;SDS011;6136;47.032;15.398;2023-03-12T11:33:37;2.78;;;2.38;;
12145;SDS011;6136;47.032;15.398;2023-03-12T11:36:13;2.88;;;2.40;;
12145;SDS011;6136;47.032;15.398;2023-03-12T11:39:01;2.95;;;2.50;;
12145;SDS011;6136;47.032;15.398;2023-03-12T11:41:42;2.67;;;2.33;;
12145;SDS011;6136;47.032;15.398;2023-03-12T11:44:30;7.10;;;2.60;;
12145;SDS011;6136;47.032;15.398;2023-03-12T11:47:11;2.58;;;2.38;;
12145;SDS011;6136;47.032;15.398;2023-03-12T11:49:56;3.03;;;2.35;;
12145;SDS011;6136;47.032;15.398;2023-03-12T11:52:36;3.65;;;2.53;;
12145;SDS011;6136;47.032;15.398;2023-03-12T11:55:21;3.05;;;2.78;;
12145;SDS011;6136;47.032;15.398;2023-03-12T11:58:19;2.17;;;1.98;;
12145;SDS011;6136;47.032;15.398;2023-03-12T12:01:00;2.38;;;2.17;;
12145;SDS011;6136;47.032;15.398;2023-03-12T12:03:58;2.42;;;2.22;;
12145;SDS011;6136;47.032;15.398;2023-03-12T12:06:41;2.20;;;2.00;;
12145;SDS011;6136;47.032;15.398;2023-03-12T12:09:20;2.17;;;2.00;;
12145;SDS011;6136;47.032;15.398;2023-03-12T12:11:58;2.63;;;2.42;;
12145;SDS011;6136;47.032;15.398;2023-03-12T12:17:33;3.15;;;2.33;;
12145;SDS011;6136;47.032;15.398;2023-03-12T12:20:15;2.20;;;2.08;;
12145;SDS011;6136;47.032;15.398;2023-03-12T12:22:53;2.33;;;2.10;;
12145;SDS011;6136;47.032;15.398;2023-03-12T12:25:36;2.30;;;2.10;;
12145;SDS011;6136;47.032;15.398;2023-03-12T12:28:29;2.20;;;2.00;;
12145;SDS011;6136;47.032;15.398;2023-03-12T12:31:24;2.30;;;2.10;;
12145;SDS011;6136;47.032;15.398;2023-03-12T12:34:05;2.63;;;2.42;;
12145;SDS011;6136;47.032;15.398;2023-03-12T12:36:56;3.05;;;2.20;;
12145;SDS011;6136;47.032;15.398;2023-03-12T12:39:33;2.65;;;2.45;;
12145;SDS011;6136;47.032;15.398;2023-03-12T12:42:09;4.57;;;2.00;;
12145;SDS011;6136;47.032;15.398;2023-03-12T12:44:45;2.53;;;2.33;;
12145;SDS011;6136;47.032;15.398;2023-03-12T12:47:28;3.05;;;2.40;;
12145;SDS011;6136;47.032;15.398;2023-03-12T12:50:01;2.85;;;2.40;;
12145;SDS011;6136;47.032;15.398;2023-03-12T12:52:31;2.25;;;2.05;;
12145;SDS011;6136;47.032;15.398;2023-03-12T12:55:02;2.72;;;2.20;;
12145;SDS011;6136;47.032;15.398;2023-03-12T12:57:36;2.20;;;1.95;;
12145;SDS011;6136;47.032;15.398;2023-03-12T13:00:14;3.75;;;2.15;;
12145;SDS011;6136;47.032;15.398;2023-03-12T13:02:50;4.28;;;2.25;;
12145;SDS011;6136;47.032;15.398;2023-03-12T13:05:25;2.35;;;1.92;;
12145;SDS011;6136;47.032;15.398;2023-03-12T13:07:55;2.65;;;2.00;;
12145;SDS011;6136;47.032;15.398;2023-03-12T13:10:39;2.40;;;2.20;;
12145;SDS011;6136;47.032;15.398;2023-03-12T13:13:23;2.50;;;2.00;;
12145;SDS011;6136;47.032;15.398;2023-03-12T13:18:59;1.90;;;1.80;;
12145;SDS011;6136;47.032;15.398;2023-03-12T13:21:34;3.13;;;2.37;;
12145;SDS011;6136;47.032;15.398;2023-03-12T13:24:10;2.83;;;2.03;;
12145;SDS011;6136;47.032;15.398;2023-03-12T13:26:53;2.20;;;1.80;;
12145;SDS011;6136;47.032;15.398;2023-03-12T13:29:36;3.33;;;2.00;;
12145;SDS011;6136;47.032;15.398;2023-03-12T13:32:08;2.03;;;1.83;;
12145;SDS011;6136;47.032;15.398;2023-03-12T13:34:59;2.38;;;2.17;;
12145;SDS011;6136;47.032;15.398;2023-03-12T13:40:37;2.40;;;1.90;;
12145;SDS011;6136;47.032;15.398;2023-03-12T13:43:31;2.50;;;1.90;;
12145;SDS011;6136;47.032;15.398;2023-03-12T13:49:11;2.30;;;2.10;;
12145;SDS011;6136;47.032;15.398;2023-03-12T13:51:58;2.78;;;2.22;;
12145;SDS011;6136;47.032;15.398;2023-03-12T13:54:30;2.20;;;2.00;;
12145;SDS011;6136;47.032;15.398;2023-03-12T13:57:03;2.63;;;2.15;;
12145;SDS011;6136;47.032;15.398;2023-03-12T13:59:43;2.13;;;1.95;;
12145;SDS011;6136;47.032;15.398;2023-03-12T14:02:15;2.47;;;2.28;;
12145;SDS011;6136;47.032;15.398;2023-03-12T14:04:51;2.70;;;2.20;;
12145;SDS011;6136;47.032;15.398;2023-03-12T14:10:24;2.55;;;2.35;;
12145;SDS011;6136;47.032;15.398;2023-03-12T14:13:05;2.33;;;2.10;;
12145;SDS011;6136;47.032;15.398;2023-03-12T14:15:45;3.33;;;2.45;;
12145;SDS011;6136;47.032;15.398;2023-03-12T14:18:23;2.40;;;2.20;;
12145;SDS011;6136;47.032;15.398;2023-03-12T14:20:53;2.60;;;2.40;;
12145;SDS011;6136;47.032;15.398;2023-03-12T14:23:28;3.25;;;2.00;;
12145;SDS011;6136;47.032;15.398;2023-03-12T14:26:02;2.50;;;2.30;;
12145;SDS011;6136;47.032;15.398;2023-03-12T14:28:36;2.33;;;2.10;;
12145;SDS011;6136;47.032;15.398;2023-03-12T14:31:08;3.10;;;2.40;;
12145;SDS011;6136;47.032;15.398;2023-03-12T14:33:44;2.40;;;2.20;;
12145;SDS011;6136;47.032;15.398;2023-03-12T14:36:18;2.42;;;2.22;;
12145;SDS011;6136;47.032;15.398;2023-03-12T14:38:51;2.40;;;2.20;;
12145;SDS011;6136;47.032;15.398;2023-03-12T14:41:28;2.35;;;2.15;;
12145;SDS011;6136;47.032;15.398;2023-03-12T14:44:02;2.72;;;2.17;;
12145;SDS011;6136;47.032;15.398;2023-03-12T14:46:44;3.42;;;2.35;;
12145;SDS011;6136;47.032;15.398;2023-03-12T14:49:22;2.83;;;2.20;;
12145;SDS011;6136;47.032;15.398;2023-03-12T14:51:52;2.67;;;2.30;;
12145;SDS011;6136;47.032;15.398;2023-03-12T14:54:23;3.72;;;2.50;;
12145;SDS011;6136;47.032;15.398;2023-03-12T14:56:53;2.70;;;2.25;;
12145;SDS011;6136;47.032;15.398;2023-03-12T14:59:23;2.88;;;2.38;;
12145;SDS011;6136;47.032;15.398;2023-03-12T15:01:57;2.42;;;2.20;;
12145;SDS011;6136;47.032;15.398;2023-03-12T15:04:28;2.92;;;2.40;;
12145;SDS011;6136;47.032;15.398;2023-03-12T15:07:01;2.60;;;2.40;;
12145;SDS011;6136;47.032;15.398;2023-03-12T15:09:33;2.70;;;2.30;;
12145;SDS011;6136;47.032;15.398;2023-03-12T15:12:03;2.40;;;2.20;;
12145;SDS011;6136;47.032;15.398;2023-03-12T15:14:36;2.73;;;2.20;;
12145;SDS011;6136;47.032;15.398;2023-03-12T15:17:09;2.57;;;2.00;;
12145;SDS011;6136;47.032;15.398;2023-03-12T15:19:44;3.17;;;2.17;;
12145;SDS011;6136;47.032;15.398;2023-03-12T15:22:15;2.50;;;2.30;;
12145;SDS011;6136;47.032;15.398;2023-03-12T15:24:47;3.13;;;2.27;;
12145;SDS011;6136;47.032;15.398;2023-03-12T15:27:20;2.10;;;1.90;;
12145;SDS011;6136;47.032;15.398;2023-03-12T15:29:59;3.20;;;2.03;;
12145;SDS011;6136;47.032;15.398;2023-03-12T15:32:28;2.63;;;2.20;;
12145;SDS011;6136;47.032;15.398;2023-03-12T15:34:59;2.20;;;2.00;;
12145;SDS011;6136;47.032;15.398;2023-03-12T15:37:40;3.20;;;2.30;;